Time;durP1;ratioP1;P1;durP2;ratioP2;P2;SDS_P1;SDS_P2;PMS_P1;PMS_P2;Temp;Humidity;BMP_temperature;BMP_pressure;BME280_temperature;BME280_humidity;BME280_pressure;Samples;Min_cycle;Max_cycle;Signal;HPM_P1;HPM_P2
2022/01/06 00:00:00;;;;;;;;;;;4.70;86.40;;;;;;5016180;28;19913;-83
2022/01/06 00:02:26;;;;;;;;;;;4.70;86.70;;;;;;5016266;28;20391;-84
2022/01/06 00:04:53;;;;;;;;;;;4.70;86.90;;;;;;5016221;28;21992;-84
2022/01/06 00:07:19;;;;;;;;;;;4.60;86.90;;;;;;5034719;28;19960;-83
2022/01/06 00:09:47;;;;;;;;;;;4.70;87.20;;;;;;5015895;28;20539;-83
2022/01/06 00:12:15;;;;;;;;;;;4.70;87.30;;;;;;5034851;28;20279;-84
2022/01/06 00:14:57;;;;;;;;;;;4.60;87.30;;;;;;5034126;28;20012;-83
2022/01/06 00:17:42;;;;;;;;;;;4.60;87.60;;;;;;5027785;28;19944;-84
2022/01/06 00:25:33;;;;;;;;;;;4.50;87.10;;;;;;5030359;28;20027;-83
2022/01/06 00:27:58;;;;;;;;;;;4.50;87.30;;;;;;5034450;28;19913;-83
2022/01/06 00:30:24;;;;;;;;;;;4.50;87.20;;;;;;5033699;28;20007;-82
2022/01/06 00:32:50;;;;;;;;;;;4.50;87.10;;;;;;5025201;28;19920;-82
2022/01/06 00:35:16;;;;;;;;;;;4.40;87.30;;;;;;5002961;28;19914;-83
2022/01/06 00:37:43;;;;;;;;;;;4.40;87.70;;;;;;5026851;28;19993;-82
2022/01/06 00:40:09;;;;;;;;;;;4.30;87.90;;;;;;5004930;28;19929;-83
2022/01/06 00:42:34;;;;;;;;;;;4.40;88.00;;;;;;5036495;28;20263;-83
2022/01/06 00:45:00;;;;;;;;;;;4.40;88.10;;;;;;5024857;28;19913;-82
2022/01/06 00:47:25;;;;;;;;;;;4.40;88.10;;;;;;5032730;28;19963;-83
2022/01/06 00:49:51;;;;;;;;;;;4.40;88.10;;;;;;5012854;28;19921;-83
2022/01/06 00:52:16;;;;;;;;;;;4.30;88.00;;;;;;5022563;28;19913;-82
2022/01/06 00:54:42;;;;;;;;;;;4.50;87.50;;;;;;5041045;28;19964;-83
2022/01/06 00:57:07;;;;;;;;;;;4.40;87.30;;;;;;5027099;28;20295;-83
2022/01/06 00:59:33;;;;;;;;;;;4.30;87.70;;;;;;5018103;28;19921;-83
2022/01/06 01:01:58;;;;;;;;;;;4.30;88.00;;;;;;5018248;28;20529;-83
2022/01/06 01:04:23;;;;;;;;;;;4.40;87.10;;;;;;5009013;28;20007;-83
2022/01/06 01:06:49;;;;;;;;;;;4.30;87.50;;;;;;5004405;28;19913;-83
2022/01/06 01:09:14;;;;;;;;;;;4.30;87.70;;;;;;5004060;28;20420;-82
2022/01/06 01:11:40;;;;;;;;;;;4.30;87.60;;;;;;5010462;28;19913;-83
2022/01/06 01:14:25;;;;;;;;;;;4.30;87.40;;;;;;5001789;28;19917;-82
2022/01/06 01:16:55;;;;;;;;;;;4.20;87.40;;;;;;5008247;28;20461;-83
2022/01/06 01:19:21;;;;;;;;;;;4.30;87.10;;;;;;5015572;28;20012;-82
2022/01/06 01:21:47;;;;;;;;;;;4.30;87.20;;;;;;5031015;28;19956;-83
2022/01/06 01:24:12;;;;;;;;;;;4.30;87.50;;;;;;5026320;28;19964;-83
2022/01/06 01:26:38;;;;;;;;;;;4.20;87.50;;;;;;5025248;28;19913;-83
2022/01/06 01:29:03;;;;;;;;;;;4.20;86.70;;;;;;5006454;28;19928;-83
2022/01/06 01:31:35;;;;;;;;;;;4.20;87.00;;;;;;5005947;28;19918;-83
2022/01/06 01:34:08;;;;;;;;;;;4.20;87.20;;;;;;5029781;28;19917;-82
2022/01/06 01:36:34;;;;;;;;;;;4.20;87.00;;;;;;5008861;28;19913;-83
2022/01/06 01:38:59;;;;;;;;;;;4.20;86.30;;;;;;5015329;28;19943;-83
2022/01/06 01:41:25;;;;;;;;;;;4.10;86.60;;;;;;5034405;28;19913;-83
2022/01/06 01:43:53;;;;;;;;;;;4.10;87.00;;;;;;5024105;28;19924;-83
2022/01/06 01:46:21;;;;;;;;;;;4.10;87.40;;;;;;5011282;28;19913;-82
2022/01/06 01:49:11;;;;;;;;;;;4.10;87.30;;;;;;5004884;28;19913;-83
2022/01/06 01:51:35;;;;;;;;;;;4.00;87.00;;;;;;5018781;28;19910;-83
2022/01/06 01:54:01;;;;;;;;;;;4.10;86.60;;;;;;5029729;28;19913;-82
2022/01/06 01:56:26;;;;;;;;;;;4.10;86.20;;;;;;5010617;28;20321;-83
2022/01/06 01:58:51;;;;;;;;;;;4.10;86.40;;;;;;5009873;28;20483;-84
2022/01/06 02:01:17;;;;;;;;;;;4.10;86.80;;;;;;5009628;28;19913;-83
2022/01/06 02:03:42;;;;;;;;;;;4.10;86.80;;;;;;5022304;28;19917;-83
2022/01/06 02:06:08;;;;;;;;;;;4.10;87.30;;;;;;5028715;28;19924;-83
2022/01/06 02:08:33;;;;;;;;;;;4.10;87.00;;;;;;5006658;28;19924;-83
2022/01/06 02:10:59;;;;;;;;;;;4.00;86.60;;;;;;5028973;28;19920;-83
2022/01/06 02:13:28;;;;;;;;;;;4.00;86.70;;;;;;5010780;28;20352;-82
2022/01/06 02:15:54;;;;;;;;;;;4.00;87.30;;;;;;5004291;28;20465;-83
2022/01/06 02:18:20;;;;;;;;;;;4.00;87.00;;;;;;5022105;28;20370;-85
2022/01/06 02:20:45;;;;;;;;;;;4.00;86.50;;;;;;5027932;28;19913;-83
2022/01/06 02:23:11;;;;;;;;;;;4.00;86.70;;;;;;5036557;28;19917;-84
2022/01/06 02:25:36;;;;;;;;;;;4.00;86.70;;;;;;5029739;28;19966;-84
2022/01/06 02:28:02;;;;;;;;;;;4.00;86.80;;;;;;5018054;28;20270;-84
2022/01/06 02:30:31;;;;;;;;;;;4.00;87.30;;;;;;5024328;28;19916;-84
2022/01/06 02:32:57;;;;;;;;;;;4.10;87.10;;;;;;5015777;28;20400;-83
2022/01/06 02:35:23;;;;;;;;;;;4.10;87.30;;;;;;5012616;28;19909;-83
2022/01/06 02:37:49;;;;;;;;;;;4.10;86.90;;;;;;5008100;28;19928;-83
2022/01/06 02:40:19;;;;;;;;;;;4.10;86.80;;;;;;5026684;28;19909;-83
2022/01/06 02:42:48;;;;;;;;;;;4.20;86.70;;;;;;5000378;28;20032;-83
2022/01/06 02:45:14;;;;;;;;;;;4.20;86.90;;;;;;5005849;28;19964;-83
2022/01/06 02:47:40;;;;;;;;;;;4.20;86.90;;;;;;5010541;28;19952;-83
2022/01/06 02:50:06;;;;;;;;;;;4.20;86.90;;;;;;5027707;28;19917;-83
2022/01/06 02:52:31;;;;;;;;;;;4.30;87.00;;;;;;5010134;28;19920;-84
2022/01/06 02:54:57;;;;;;;;;;;4.20;86.60;;;;;;5026687;28;19997;-84
2022/01/06 02:57:22;;;;;;;;;;;4.30;85.90;;;;;;5036296;28;20292;-83
2022/01/06 02:59:48;;;;;;;;;;;4.30;85.30;;;;;;5035665;28;19987;-83
2022/01/06 03:02:13;;;;;;;;;;;4.20;85.90;;;;;;5029884;28;19923;-83
2022/01/06 03:04:39;;;;;;;;;;;4.20;86.10;;;;;;5012822;28;20019;-83
2022/01/06 03:07:06;;;;;;;;;;;4.30;85.90;;;;;;5017525;28;19913;-82
2022/01/06 03:09:40;;;;;;;;;;;4.20;85.90;;;;;;5004210;28;19920;-83
2022/01/06 03:12:09;;;;;;;;;;;4.20;86.00;;;;;;5007949;28;19913;-83
2022/01/06 03:14:37;;;;;;;;;;;4.10;86.20;;;;;;5007491;28;20360;-83
2022/01/06 03:17:03;;;;;;;;;;;4.10;85.80;;;;;;5030924;28;19975;-83
2022/01/06 03:19:29;;;;;;;;;;;4.10;86.10;;;;;;5033101;28;19924;-83
2022/01/06 03:21:54;;;;;;;;;;;4.10;85.90;;;;;;5009193;28;20301;-82
2022/01/06 03:24:20;;;;;;;;;;;4.00;86.30;;;;;;5008821;28;19913;-83
2022/01/06 03:26:46;;;;;;;;;;;4.00;86.60;;;;;;5029243;28;19913;-82
2022/01/06 03:29:11;;;;;;;;;;;4.00;86.50;;;;;;4998953;28;20009;-83
2022/01/06 03:31:37;;;;;;;;;;;3.90;86.60;;;;;;5014701;28;19952;-82
2022/01/06 03:34:02;;;;;;;;;;;4.00;86.60;;;;;;5013543;28;19914;-83
2022/01/06 03:36:28;;;;;;;;;;;4.00;86.70;;;;;;5010649;28;20027;-84
2022/01/06 03:38:53;;;;;;;;;;;3.90;86.60;;;;;;5019490;28;20444;-83
2022/01/06 03:41:19;;;;;;;;;;;3.90;86.20;;;;;;5023828;28;19920;-83
2022/01/06 03:43:44;;;;;;;;;;;3.80;86.30;;;;;;5023462;28;20016;-82
2022/01/06 03:46:09;;;;;;;;;;;3.80;86.40;;;;;;5026192;28;19921;-83
2022/01/06 03:48:35;;;;;;;;;;;3.80;86.50;;;;;;4999057;28;19928;-83
2022/01/06 03:51:00;;;;;;;;;;;3.80;86.60;;;;;;5005913;28;20543;-83
2022/01/06 03:53:26;;;;;;;;;;;3.80;86.40;;;;;;4999712;28;19924;-83
2022/01/06 03:55:51;;;;;;;;;;;3.70;86.70;;;;;;4998881;28;19917;-83
2022/01/06 03:58:17;;;;;;;;;;;3.60;86.90;;;;;;5013959;28;19917;-83
2022/01/06 04:00:42;;;;;;;;;;;3.60;86.60;;;;;;5017570;28;19909;-83
2022/01/06 04:03:08;;;;;;;;;;;3.60;87.30;;;;;;5015410;28;19913;-82
2022/01/06 04:05:33;;;;;;;;;;;3.60;87.40;;;;;;5028196;28;19913;-83
2022/01/06 04:08:00;;;;;;;;;;;3.60;87.60;;;;;;5034919;28;20019;-83
2022/01/06 04:10:25;;;;;;;;;;;3.60;87.30;;;;;;5014669;28;19914;-83
2022/01/06 04:12:51;;;;;;;;;;;3.60;87.20;;;;;;5009055;28;19972;-83
2022/01/06 04:15:16;;;;;;;;;;;3.60;87.20;;;;;;5006475;28;19913;-83
2022/01/06 04:17:42;;;;;;;;;;;3.60;87.10;;;;;;5016023;28;19939;-83
2022/01/06 04:20:09;;;;;;;;;;;3.60;87.20;;;;;;5013662;28;20004;-83
2022/01/06 04:22:35;;;;;;;;;;;3.60;87.30;;;;;;5009610;28;19979;-83
2022/01/06 04:25:00;;;;;;;;;;;3.60;87.30;;;;;;5006676;28;19944;-81
2022/01/06 04:27:26;;;;;;;;;;;3.50;87.40;;;;;;5027987;28;19924;-83
2022/01/06 04:29:52;;;;;;;;;;;3.50;87.40;;;;;;5021440;28;19920;-83
2022/01/06 04:32:17;;;;;;;;;;;3.50;87.50;;;;;;5025285;28;20259;-82
2022/01/06 04:34:42;;;;;;;;;;;3.50;87.60;;;;;;5027604;28;19956;-83
2022/01/06 04:37:08;;;;;;;;;;;3.50;87.50;;;;;;5006039;28;19994;-83
2022/01/06 04:39:33;;;;;;;;;;;3.50;87.80;;;;;;5021770;28;19921;-83
2022/01/06 04:41:59;;;;;;;;;;;3.50;87.50;;;;;;5012497;28;20199;-83
2022/01/06 04:44:24;;;;;;;;;;;3.40;87.60;;;;;;5004580;28;20019;-83
2022/01/06 04:46:50;;;;;;;;;;;3.40;87.70;;;;;;5010281;28;20382;-83
2022/01/06 04:49:15;;;;;;;;;;;3.60;87.40;;;;;;5030267;28;19917;-83
2022/01/06 04:52:01;;;;;;;;;;;3.50;87.30;;;;;;5051659;23;20062;-90
2022/01/06 04:55:05;;;;;;;;;;;3.50;87.10;;;;;;5020774;28;20066;-90
2022/01/06 04:58:08;;;;;;;;;;;3.50;87.70;;;;;;4985867;28;20011;-90
2022/01/06 05:06:53;;;;;;;;;;;3.30;87.50;;;;;;5032608;28;20406;-90
2022/01/06 05:09:38;;;;;;;;;;;3.30;88.00;;;;;;4994011;28;19940;-90
2022/01/06 05:12:21;;;;;;;;;;;3.30;88.10;;;;;;5024082;28;19909;-90
2022/01/06 05:21:18;;;;;;;;;;;3.30;87.70;;;;;;4949912;29;19919;-90
2022/01/06 05:30:08;;;;;;;;;;;3.20;87.50;;;;;;4979274;28;19960;-90
2022/01/06 05:41:46;;;;;;;;;;;3.10;87.70;;;;;;4951177;28;19914;-91
2022/01/06 05:44:52;;;;;;;;;;;3.10;88.00;;;;;;4978138;28;19917;-92
2022/01/06 05:47:20;;;;;;;;;;;3.10;87.90;;;;;;5013541;28;19960;-85
2022/01/06 05:50:15;;;;;;;;;;;3.10;88.00;;;;;;5011904;28;19913;-88
2022/01/06 05:52:54;;;;;;;;;;;3.20;87.90;;;;;;5011384;28;19949;-87
2022/01/06 05:55:28;;;;;;;;;;;3.20;88.10;;;;;;5030751;28;19913;-85
2022/01/06 05:58:12;;;;;;;;;;;3.20;88.10;;;;;;5013855;28;19913;-86
2022/01/06 06:00:45;;;;;;;;;;;3.30;88.20;;;;;;5015736;28;20008;-86
2022/01/06 06:03:10;;;;;;;;;;;3.30;87.60;;;;;;5036913;28;20004;-85
2022/01/06 06:05:53;;;;;;;;;;;3.30;87.90;;;;;;5033357;28;19913;-88
2022/01/06 06:08:29;;;;;;;;;;;3.40;88.20;;;;;;5026765;28;19906;-90
2022/01/06 06:10:55;;;;;;;;;;;3.40;87.90;;;;;;5010139;28;19913;-86
2022/01/06 06:13:21;;;;;;;;;;;3.40;87.80;;;;;;5013968;28;19913;-87
2022/01/06 06:15:46;;;;;;;;;;;3.30;87.40;;;;;;5012532;28;19927;-87
2022/01/06 06:18:12;;;;;;;;;;;3.30;87.40;;;;;;5018721;28;19928;-89
2022/01/06 06:20:38;;;;;;;;;;;3.30;87.50;;;;;;5035508;28;19931;-90
2022/01/06 06:23:04;;;;;;;;;;;3.30;87.60;;;;;;5026426;28;19943;-90
2022/01/06 06:25:29;;;;;;;;;;;3.20;87.30;;;;;;5017651;28;19964;-91
2022/01/06 06:27:54;;;;;;;;;;;3.20;87.60;;;;;;5033756;28;20032;-92
2022/01/06 06:30:23;;;;;;;;;;;3.20;87.90;;;;;;5032382;28;20003;-90
2022/01/06 06:32:49;;;;;;;;;;;3.30;88.20;;;;;;5036474;28;19913;-88
2022/01/06 06:35:14;;;;;;;;;;;3.30;88.20;;;;;;5030538;28;19914;-89
2022/01/06 06:37:39;;;;;;;;;;;3.30;88.00;;;;;;5007952;28;19909;-88
2022/01/06 06:40:05;;;;;;;;;;;3.30;88.00;;;;;;5016518;28;19932;-88
2022/01/06 06:42:31;;;;;;;;;;;3.30;88.00;;;;;;5017876;28;20568;-87
2022/01/06 06:44:57;;;;;;;;;;;3.30;88.00;;;;;;5016799;28;19913;-88
2022/01/06 06:47:22;;;;;;;;;;;3.30;87.90;;;;;;5015739;28;19909;-87
2022/01/06 06:49:48;;;;;;;;;;;3.30;87.60;;;;;;5005674;28;20281;-87
2022/01/06 06:52:13;;;;;;;;;;;3.30;87.70;;;;;;5008587;28;20414;-84
2022/01/06 06:54:40;;;;;;;;;;;3.30;87.50;;;;;;5010131;28;19924;-89
2022/01/06 07:03:16;;;;;;;;;;;3.30;87.40;;;;;;5025260;28;19960;-89
2022/01/06 07:06:11;;;;;;;;;;;3.40;87.50;;;;;;5006106;28;19913;-88
2022/01/06 07:08:36;;;;;;;;;;;3.30;87.30;;;;;;5009882;28;19933;-88
2022/01/06 07:11:08;;;;;;;;;;;3.20;87.60;;;;;;4999532;28;20283;-90
2022/01/06 07:13:33;;;;;;;;;;;3.20;87.30;;;;;;5034460;28;19910;-88
2022/01/06 07:16:19;;;;;;;;;;;3.20;87.30;;;;;;5021059;28;19909;-88
2022/01/06 07:18:56;;;;;;;;;;;3.10;87.40;;;;;;5019209;28;19924;-88
2022/01/06 07:21:24;;;;;;;;;;;3.30;87.40;;;;;;5016577;28;20336;-88
2022/01/06 07:24:08;;;;;;;;;;;;;;;;;;;;;
2022/01/06 07:26:37;;;;;;;;;;;3.30;87.20;;;;;;5034728;28;19997;-87
2022/01/06 07:29:08;;;;;;;;;;;3.30;87.30;;;;;;5022155;28;19940;-87
2022/01/06 07:31:41;;;;;;;;;;;3.20;87.40;;;;;;4996973;28;19914;-86
2022/01/06 07:34:07;;;;;;;;;;;3.20;87.10;;;;;;5030033;28;19925;-87
2022/01/06 07:36:50;;;;;;;;;;;3.10;86.90;;;;;;5004868;28;19913;-86
2022/01/06 07:39:24;;;;;;;;;;;3.10;87.00;;;;;;5031766;28;19928;-86
2022/01/06 07:41:53;;;;;;;;;;;3.10;87.20;;;;;;5032100;28;19949;-89
2022/01/06 07:44:21;;;;;;;;;;;3.00;87.30;;;;;;5015968;28;19909;-89
2022/01/06 07:46:53;;;;;;;;;;;3.10;87.50;;;;;;5037446;28;19979;-88
2022/01/06 07:49:19;;;;;;;;;;;3.00;87.50;;;;;;5003334;28;19917;-87
2022/01/06 07:51:56;;;;;;;;;;;3.00;87.60;;;;;;4999125;28;20308;-89
2022/01/06 07:54:30;;;;;;;;;;;3.00;87.60;;;;;;5001273;28;19928;-89
2022/01/06 07:56:55;;;;;;;;;;;3.00;87.40;;;;;;5015498;28;19916;-88
2022/01/06 07:59:24;;;;;;;;;;;2.90;87.60;;;;;;5032663;28;20259;-88
2022/01/06 08:01:52;;;;;;;;;;;2.90;87.50;;;;;;5031711;28;19909;-86
2022/01/06 08:04:17;;;;;;;;;;;2.80;87.70;;;;;;5032312;28;20283;-87
2022/01/06 08:06:43;;;;;;;;;;;2.90;88.20;;;;;;5032389;28;19913;-87
2022/01/06 08:09:11;;;;;;;;;;;2.90;88.00;;;;;;5042719;28;19967;-87
2022/01/06 08:11:36;;;;;;;;;;;2.90;88.10;;;;;;5039938;28;19936;-85
2022/01/06 08:14:09;;;;;;;;;;;2.90;88.00;;;;;;5039409;28;19901;-87
2022/01/06 08:16:35;;;;;;;;;;;2.90;88.10;;;;;;5053575;28;19909;-87
2022/01/06 08:19:00;;;;;;;;;;;2.80;88.10;;;;;;5035963;28;19988;-86
2022/01/06 08:21:26;;;;;;;;;;;2.80;88.00;;;;;;5016770;28;19913;-85
2022/01/06 08:23:51;;;;;;;;;;;2.80;87.80;;;;;;5014601;28;19956;-86
2022/01/06 08:26:17;;;;;;;;;;;2.80;88.10;;;;;;5011997;28;19913;-87
2022/01/06 08:28:46;;;;;;;;;;;2.90;87.90;;;;;;5041623;28;20000;-87
2022/01/06 08:31:13;;;;;;;;;;;2.90;87.70;;;;;;5033179;28;19988;-86
2022/01/06 08:33:38;;;;;;;;;;;2.80;88.00;;;;;;5016034;28;19909;-86
2022/01/06 08:36:04;;;;;;;;;;;3.00;88.10;;;;;;5027760;28;19910;-86
2022/01/06 08:38:29;;;;;;;;;;;3.00;87.90;;;;;;5027551;28;19921;-86
2022/01/06 08:40:55;;;;;;;;;;;3.00;88.10;;;;;;5012232;28;19917;-87
2022/01/06 08:43:27;;;;;;;;;;;3.00;88.10;;;;;;5027950;28;19921;-86
2022/01/06 08:45:53;;;;;;;;;;;3.10;88.00;;;;;;5053545;28;19913;-89
2022/01/06 08:48:18;;;;;;;;;;;3.20;88.10;;;;;;5015949;28;19909;-88
2022/01/06 08:50:44;;;;;;;;;;;3.20;88.00;;;;;;5018665;28;19931;-87
2022/01/06 08:53:09;;;;;;;;;;;3.20;88.00;;;;;;5036970;28;19921;-87
2022/01/06 08:55:37;;;;;;;;;;;3.20;87.80;;;;;;5020953;28;19964;-88
2022/01/06 08:58:16;;;;;;;;;;;;;;;;;;;;;
2022/01/06 09:00:47;;;;;;;;;;;3.30;87.70;;;;;;5032510;28;20031;-88
2022/01/06 09:03:41;;;;;;;;;;;3.40;87.40;;;;;;5031836;28;19909;-88
2022/01/06 09:06:12;;;;;;;;;;;3.40;87.50;;;;;;5015264;28;19981;-87
2022/01/06 09:08:41;;;;;;;;;;;3.60;87.10;;;;;;5016036;28;20368;-90
2022/01/06 09:11:09;;;;;;;;;;;3.60;86.90;;;;;;5016051;28;19913;-91
2022/01/06 09:13:37;;;;;;;;;;;3.50;87.20;;;;;;5015970;28;19909;-91
2022/01/06 09:16:08;;;;;;;;;;;3.60;87.60;;;;;;4999480;28;19992;-91
2022/01/06 09:18:53;;;;;;;;;;;3.60;87.10;;;;;;4996568;28;19914;-91
2022/01/06 09:21:22;;;;;;;;;;;3.60;87.40;;;;;;4997026;28;19953;-90
2022/01/06 09:23:59;;;;;;;;;;;3.60;87.30;;;;;;5020000;28;19905;-93
2022/01/06 09:26:40;;;;;;;;;;;3.70;87.20;;;;;;5025303;28;19923;-95
2022/01/06 09:29:27;;;;;;;;;;;3.60;87.00;;;;;;5016476;28;19953;-91
2022/01/06 09:32:16;;;;;;;;;;;3.70;87.40;;;;;;5014085;28;20299;-91
2022/01/06 09:38:07;;;;;;;;;;;3.80;87.30;;;;;;5037799;28;19909;-91
2022/01/06 09:40:39;;;;;;;;;;;3.80;87.10;;;;;;5012865;28;19917;-91
2022/01/06 09:43:15;;;;;;;;;;;;;;;;;;;;;
2022/01/06 09:45:56;;;;;;;;;;;;;;;;;;;;;
2022/01/06 09:48:33;;;;;;;;;;;;;;;;;;;;;
2022/01/06 09:51:04;;;;;;;;;;;3.90;87.00;;;;;;5043734;28;19969;-92
2022/01/06 09:53:54;;;;;;;;;;;3.90;87.10;;;;;;5049452;28;20367;-90
2022/01/06 09:56:29;;;;;;;;;;;4.00;87.30;;;;;;5042418;28;19897;-94
2022/01/06 09:59:29;;;;;;;;;;;4.10;86.80;;;;;;5007049;28;19921;-90
2022/01/06 10:02:16;;;;;;;;;;;4.10;86.80;;;;;;5013183;28;19909;-91
2022/01/06 10:04:47;;;;;;;;;;;4.10;86.60;;;;;;5036493;28;19955;-91
2022/01/06 10:07:14;;;;;;;;;;;4.10;86.20;;;;;;5036219;28;20372;-88
2022/01/06 10:09:40;;;;;;;;;;;4.20;86.50;;;;;;5018769;28;20262;-92
2022/01/06 10:12:10;;;;;;;;;;;4.20;86.20;;;;;;5012061;28;19913;-89
2022/01/06 10:14:42;;;;;;;;;;;4.10;86.20;;;;;;5019281;28;19909;-89
2022/01/06 10:17:09;;;;;;;;;;;4.30;86.40;;;;;;5015543;28;19920;-89
2022/01/06 10:19:41;;;;;;;;;;;4.30;86.10;;;;;;5018818;28;19913;-90
2022/01/06 10:22:25;;;;;;;;;;;4.30;86.00;;;;;;5014705;28;20356;-90
2022/01/06 10:24:50;;;;;;;;;;;4.30;86.40;;;;;;5031005;28;19909;-89
2022/01/06 10:27:20;;;;;;;;;;;4.30;86.00;;;;;;5002272;28;19909;-90
2022/01/06 10:29:47;;;;;;;;;;;4.40;85.90;;;;;;5025125;28;19909;-90
2022/01/06 10:32:23;;;;;;;;;;;4.40;85.70;;;;;;5031700;28;19925;-89
2022/01/06 10:34:55;;;;;;;;;;;4.30;85.60;;;;;;5040117;28;19920;-90
2022/01/06 10:37:48;;;;;;;;;;;4.40;85.90;;;;;;5006133;28;20379;-90
2022/01/06 10:40:18;;;;;;;;;;;4.50;86.10;;;;;;5026567;28;20040;-89
2022/01/06 10:42:48;;;;;;;;;;;4.50;85.70;;;;;;5008045;28;19909;-90
2022/01/06 10:45:15;;;;;;;;;;;4.50;85.60;;;;;;5014995;28;19913;-90
2022/01/06 10:47:43;;;;;;;;;;;4.50;85.50;;;;;;4998558;28;19909;-90
2022/01/06 10:50:57;;;;;;;;;;;4.50;85.50;;;;;;4999305;28;19996;-90
2022/01/06 10:53:16;;;;;;;;;;;4.50;85.10;;;;;;5011190;28;19924;-90
2022/01/06 10:55:46;;;;;;;;;;;4.60;85.10;;;;;;5005539;28;20303;-90
2022/01/06 10:58:13;;;;;;;;;;;4.50;85.20;;;;;;5035645;28;20014;-90
2022/01/06 11:01:11;;;;;;;;;;;4.60;85.10;;;;;;5019252;28;19917;-90
2022/01/06 11:03:36;;;;;;;;;;;4.80;85.20;;;;;;4951690;28;20371;-90
2022/01/06 11:06:03;;;;;;;;;;;4.80;84.50;;;;;;5018164;28;19919;-87
2022/01/06 11:08:30;;;;;;;;;;;4.80;84.50;;;;;;5056874;28;19901;-86
2022/01/06 11:13:37;;;;;;;;;;;4.90;84.10;;;;;;5022879;28;19913;-89
2022/01/06 11:16:06;;;;;;;;;;;4.80;84.30;;;;;;5030093;28;19955;-86
2022/01/06 11:18:32;;;;;;;;;;;4.80;84.60;;;;;;5030842;28;19991;-86
2022/01/06 11:21:12;;;;;;;;;;;4.80;84.20;;;;;;5027376;28;19984;-88
2022/01/06 11:23:46;;;;;;;;;;;4.90;83.80;;;;;;5015038;28;19913;-90
2022/01/06 11:26:38;;;;;;;;;;;5.00;83.70;;;;;;5016795;28;19917;-92
2022/01/06 11:29:03;;;;;;;;;;;5.10;83.40;;;;;;5023300;28;19920;-91
2022/01/06 11:31:37;;;;;;;;;;;5.10;83.00;;;;;;5016560;28;19913;-89
2022/01/06 11:34:29;;;;;;;;;;;5.10;82.90;;;;;;5033735;28;20389;-90
2022/01/06 11:37:28;;;;;;;;;;;5.10;82.80;;;;;;5032731;28;20294;-90
2022/01/06 11:40:04;;;;;;;;;;;5.20;82.00;;;;;;5016967;28;19913;-88
2022/01/06 11:43:08;;;;;;;;;;;5.20;82.40;;;;;;5018648;28;20578;-89
2022/01/06 11:45:37;;;;;;;;;;;5.30;82.40;;;;;;5021016;28;19920;-89
2022/01/06 11:48:07;;;;;;;;;;;5.30;82.70;;;;;;5021704;28;19917;-87
2022/01/06 11:50:55;;;;;;;;;;;5.30;82.40;;;;;;5016703;28;19951;-89
2022/01/06 11:53:44;;;;;;;;;;;5.30;82.40;;;;;;5002663;28;19905;-89
2022/01/06 11:56:43;;;;;;;;;;;;;;;;;;;;;
2022/01/06 11:59:19;;;;;;;;;;;5.30;81.90;;;;;;5020652;28;19921;-90
2022/01/06 12:01:55;;;;;;;;;;;5.30;81.90;;;;;;4998615;28;19910;-92
2022/01/06 12:04:29;;;;;;;;;;;5.30;82.00;;;;;;5022514;28;19917;-90
2022/01/06 12:07:08;;;;;;;;;;;5.20;82.20;;;;;;5017613;28;19960;-88
2022/01/06 12:09:34;;;;;;;;;;;5.20;82.20;;;;;;5032220;28;19967;-90
2022/01/06 12:12:12;;;;;;;;;;;5.20;82.30;;;;;;5033534;28;19936;-90
2022/01/06 12:14:38;;;;;;;;;;;5.30;82.50;;;;;;5015668;28;20284;-90
2022/01/06 12:17:05;;;;;;;;;;;5.30;82.70;;;;;;5032635;28;19910;-90
2022/01/06 12:19:38;;;;;;;;;;;5.30;82.50;;;;;;5014196;28;19921;-88
2022/01/06 12:22:09;;;;;;;;;;;5.20;82.80;;;;;;5021642;28;19959;-91
2022/01/06 12:24:43;;;;;;;;;;;5.40;82.30;;;;;;4995913;28;19914;-91
2022/01/06 12:27:09;;;;;;;;;;;5.30;82.50;;;;;;5006395;28;19913;-88
2022/01/06 12:29:38;;;;;;;;;;;5.30;82.70;;;;;;5005717;28;19920;-86
2022/01/06 12:32:06;;;;;;;;;;;5.30;83.60;;;;;;5031062;28;20375;-87
2022/01/06 12:34:31;;;;;;;;;;;5.20;83.70;;;;;;5014988;28;19924;-89
2022/01/06 12:36:56;;;;;;;;;;;5.30;83.60;;;;;;5025682;28;19913;-85
2022/01/06 12:39:22;;;;;;;;;;;5.20;84.00;;;;;;5021512;28;19925;-88
2022/01/06 12:41:48;;;;;;;;;;;5.20;84.10;;;;;;5020148;28;19967;-87
2022/01/06 12:44:21;;;;;;;;;;;5.20;84.10;;;;;;5027267;28;20000;-87
2022/01/06 12:46:47;;;;;;;;;;;5.30;83.70;;;;;;5053833;28;19920;-88
2022/01/06 12:49:13;;;;;;;;;;;5.10;83.30;;;;;;5055402;28;19905;-86
2022/01/06 12:51:40;;;;;;;;;;;5.00;83.40;;;;;;5022715;28;19977;-89
2022/01/06 12:54:13;;;;;;;;;;;4.90;83.60;;;;;;5031366;28;19921;-88
2022/01/06 12:56:38;;;;;;;;;;;4.90;83.90;;;;;;5023763;28;19917;-89
2022/01/06 12:59:09;;;;;;;;;;;4.70;84.00;;;;;;5005669;28;20364;-87
2022/01/06 13:01:35;;;;;;;;;;;4.70;84.50;;;;;;5004638;28;19921;-87
2022/01/06 13:04:04;;;;;;;;;;;4.80;84.50;;;;;;5024585;28;19920;-90
2022/01/06 13:06:37;;;;;;;;;;;4.80;84.50;;;;;;5022296;28;19916;-95
2022/01/06 13:09:19;;;;;;;;;;;4.80;84.50;;;;;;5015601;28;19924;-87
2022/01/06 13:11:48;;;;;;;;;;;4.90;83.80;;;;;;5013080;28;20379;-86
2022/01/06 13:14:32;;;;;;;;;;;4.90;84.20;;;;;;5011741;28;20596;-85
2022/01/06 13:17:05;;;;;;;;;;;4.80;83.70;;;;;;5014466;28;19931;-87
2022/01/06 13:19:31;;;;;;;;;;;4.80;84.00;;;;;;5014890;28;19924;-86
2022/01/06 13:22:02;;;;;;;;;;;4.80;84.00;;;;;;5015342;28;20008;-85
2022/01/06 13:24:29;;;;;;;;;;;4.80;84.20;;;;;;5012065;28;19921;-88
2022/01/06 13:26:55;;;;;;;;;;;4.80;84.30;;;;;;5011058;28;19960;-89
2022/01/06 13:29:34;;;;;;;;;;;4.80;84.70;;;;;;5019492;28;19959;-86
2022/01/06 13:32:01;;;;;;;;;;;4.80;84.60;;;;;;5045920;28;19905;-86
2022/01/06 13:34:27;;;;;;;;;;;4.60;84.60;;;;;;5041911;28;19925;-87
2022/01/06 13:37:05;;;;;;;;;;;4.70;84.50;;;;;;5015596;28;19917;-84
2022/01/06 13:39:51;;;;;;;;;;;4.60;85.00;;;;;;5025720;28;19917;-89
2022/01/06 13:42:37;;;;;;;;;;;4.80;84.60;;;;;;5056352;28;19912;-92
2022/01/06 13:51:23;;;;;;;;;;;4.90;83.30;;;;;;5056997;28;19928;-93
2022/01/06 13:54:07;;;;;;;;;;;4.90;83.80;;;;;;5019236;28;19931;-89
2022/01/06 13:56:34;;;;;;;;;;;4.90;83.80;;;;;;5031384;28;19924;-89
2022/01/06 13:59:15;;;;;;;;;;;4.90;83.70;;;;;;5035469;28;19968;-88
2022/01/06 14:02:01;;;;;;;;;;;4.90;83.80;;;;;;5026658;28;19967;-92
2022/01/06 14:04:27;;;;;;;;;;;5.00;83.30;;;;;;5007961;28;19987;-91
2022/01/06 14:06:52;;;;;;;;;;;4.90;83.10;;;;;;5021369;28;19913;-91
2022/01/06 14:09:19;;;;;;;;;;;4.80;83.50;;;;;;5017317;28;20426;-91
2022/01/06 14:11:57;;;;;;;;;;;4.80;83.70;;;;;;5013722;28;19921;-91
2022/01/06 14:14:23;;;;;;;;;;;4.80;83.70;;;;;;5001922;28;19913;-90
2022/01/06 14:16:49;;;;;;;;;;;4.80;83.70;;;;;;5024058;28;19957;-90
2022/01/06 14:19:17;;;;;;;;;;;4.70;84.10;;;;;;5021526;28;19940;-91
2022/01/06 14:22:00;;;;;;;;;;;4.70;84.20;;;;;;5017726;28;19920;-92
2022/01/06 14:27:37;;;;;;;;;;;4.60;84.60;;;;;;5024427;28;20279;-91
2022/01/06 14:30:08;;;;;;;;;;;4.50;84.70;;;;;;5018302;28;19939;-91
2022/01/06 14:32:38;;;;;;;;;;;4.60;84.80;;;;;;5036843;28;19921;-89
2022/01/06 14:35:11;;;;;;;;;;;4.60;84.50;;;;;;5019201;28;19913;-89
2022/01/06 14:37:46;;;;;;;;;;;4.60;84.20;;;;;;5019982;28;19956;-90
2022/01/06 14:40:12;;;;;;;;;;;4.50;84.60;;;;;;5017415;28;19921;-90
2022/01/06 14:42:56;;;;;;;;;;;4.60;84.40;;;;;;5033485;28;19913;-90
2022/01/06 14:51:28;;;;;;;;;;;4.60;84.80;;;;;;5046024;22;19944;-80
2022/01/06 14:53:53;;;;;;;;;;;4.60;85.30;;;;;;5033959;28;20000;-80
2022/01/06 14:56:19;;;;;;;;;;;4.60;84.90;;;;;;5038117;28;19917;-80
2022/01/06 14:58:45;;;;;;;;;;;4.50;85.10;;;;;;5021262;28;19983;-80
2022/01/06 15:01:11;;;;;;;;;;;4.50;85.40;;;;;;5024158;28;19921;-80
2022/01/06 15:03:39;;;;;;;;;;;4.40;85.50;;;;;;5024460;28;19928;-80
2022/01/06 15:06:05;;;;;;;;;;;4.40;85.50;;;;;;5023461;28;19919;-80
2022/01/06 15:08:31;;;;;;;;;;;4.30;85.40;;;;;;5018923;28;19913;-80
2022/01/06 15:10:57;;;;;;;;;;;4.20;85.50;;;;;;5024297;28;20262;-81
2022/01/06 15:13:24;;;;;;;;;;;4.40;85.60;;;;;;5025321;28;19996;-80
2022/01/06 15:15:50;;;;;;;;;;;4.30;85.90;;;;;;5024972;28;19913;-80
2022/01/06 15:18:16;;;;;;;;;;;4.30;85.40;;;;;;5023372;28;19920;-80
2022/01/06 15:20:41;;;;;;;;;;;4.30;85.40;;;;;;5021511;28;19913;-81
2022/01/06 15:23:07;;;;;;;;;;;4.20;85.90;;;;;;5017951;28;19921;-80
2022/01/06 15:25:35;;;;;;;;;;;4.20;86.00;;;;;;5029766;28;20267;-87
2022/01/06 15:28:02;;;;;;;;;;;4.30;85.70;;;;;;5026913;28;20393;-79
2022/01/06 15:30:28;;;;;;;;;;;4.30;85.40;;;;;;5022755;28;20349;-79
2022/01/06 15:32:54;;;;;;;;;;;4.40;84.90;;;;;;5029037;28;19913;-79
2022/01/06 15:35:19;;;;;;;;;;;4.20;85.10;;;;;;5037308;28;19916;-80
2022/01/06 15:37:45;;;;;;;;;;;4.20;85.60;;;;;;5025372;28;19917;-80
2022/01/06 15:40:11;;;;;;;;;;;4.10;85.90;;;;;;5032778;28;20047;-79
2022/01/06 15:42:37;;;;;;;;;;;4.10;86.00;;;;;;5031212;28;19923;-79
2022/01/06 15:45:03;;;;;;;;;;;4.10;85.70;;;;;;5026058;28;19924;-80
2022/01/06 15:47:28;;;;;;;;;;;4.00;86.00;;;;;;5026318;28;19921;-80
2022/01/06 15:49:53;;;;;;;;;;;4.00;86.20;;;;;;5031558;28;19913;-80
2022/01/06 15:52:19;;;;;;;;;;;4.00;86.00;;;;;;5027378;28;19921;-80
2022/01/06 15:54:44;;;;;;;;;;;4.00;86.00;;;;;;5030255;28;20272;-79